sensor_id;sensor_type;location;lat;lon;timestamp;P1;durP1;ratioP1;P2;durP2;ratioP2
12110;SDS011;6119;52.372;8.990;2023-12-20T00:00:13;6.23;;;2.37;;
12110;SDS011;6119;52.372;8.990;2023-12-20T00:03:00;11.50;;;2.80;;
12110;SDS011;6119;52.372;8.990;2023-12-20T00:05:47;9.87;;;2.20;;
12110;SDS011;6119;52.372;8.990;2023-12-20T00:08:34;6.73;;;2.30;;
12110;SDS011;6119;52.372;8.990;2023-12-20T00:11:21;5.93;;;2.47;;
12110;SDS011;6119;52.372;8.990;2023-12-20T00:14:08;7.07;;;2.87;;
12110;SDS011;6119;52.372;8.990;2023-12-20T00:16:55;3.87;;;2.10;;
12110;SDS011;6119;52.372;8.990;2023-12-20T00:19:42;8.53;;;2.53;;
12110;SDS011;6119;52.372;8.990;2023-12-20T00:22:29;9.57;;;2.60;;
12110;SDS011;6119;52.372;8.990;2023-12-20T00:25:16;4.07;;;2.27;;
12110;SDS011;6119;52.372;8.990;2023-12-20T00:28:03;4.73;;;2.23;;
12110;SDS011;6119;52.372;8.990;2023-12-20T00:30:49;5.93;;;2.23;;
12110;SDS011;6119;52.372;8.990;2023-12-20T00:33:38;9.83;;;2.67;;
12110;SDS011;6119;52.372;8.990;2023-12-20T00:36:29;10.00;;;2.57;;
12110;SDS011;6119;52.372;8.990;2023-12-20T00:39:15;7.50;;;2.30;;
12110;SDS011;6119;52.372;8.990;2023-12-20T00:42:02;6.33;;;2.50;;
12110;SDS011;6119;52.372;8.990;2023-12-20T00:44:49;4.43;;;1.93;;
12110;SDS011;6119;52.372;8.990;2023-12-20T00:47:35;3.53;;;2.17;;
12110;SDS011;6119;52.372;8.990;2023-12-20T00:50:23;6.50;;;2.30;;
12110;SDS011;6119;52.372;8.990;2023-12-20T00:53:14;4.63;;;2.20;;
12110;SDS011;6119;52.372;8.990;2023-12-20T00:56:01;5.37;;;1.77;;
12110;SDS011;6119;52.372;8.990;2023-12-20T00:58:47;6.10;;;2.13;;
12110;SDS011;6119;52.372;8.990;2023-12-20T01:01:34;15.60;;;2.70;;
12110;SDS011;6119;52.372;8.990;2023-12-20T01:04:21;5.47;;;2.33;;
12110;SDS011;6119;52.372;8.990;2023-12-20T01:07:09;6.07;;;2.70;;
12110;SDS011;6119;52.372;8.990;2023-12-20T01:09:56;6.53;;;2.30;;
12110;SDS011;6119;52.372;8.990;2023-12-20T01:12:43;6.60;;;2.33;;
12110;SDS011;6119;52.372;8.990;2023-12-20T01:15:29;3.83;;;2.10;;
12110;SDS011;6119;52.372;8.990;2023-12-20T01:18:16;14.83;;;2.90;;
12110;SDS011;6119;52.372;8.990;2023-12-20T01:21:03;4.77;;;2.37;;
12110;SDS011;6119;52.372;8.990;2023-12-20T01:23:51;8.53;;;2.90;;
12110;SDS011;6119;52.372;8.990;2023-12-20T01:26:37;6.03;;;2.63;;
12110;SDS011;6119;52.372;8.990;2023-12-20T01:29:24;3.97;;;2.07;;
12110;SDS011;6119;52.372;8.990;2023-12-20T01:32:11;7.93;;;2.47;;
12110;SDS011;6119;52.372;8.990;2023-12-20T01:34:58;7.53;;;3.17;;
12110;SDS011;6119;52.372;8.990;2023-12-20T01:37:47;9.03;;;2.63;;
12110;SDS011;6119;52.372;8.990;2023-12-20T01:40:35;10.03;;;2.80;;
12110;SDS011;6119;52.372;8.990;2023-12-20T01:43:22;10.17;;;3.00;;
12110;SDS011;6119;52.372;8.990;2023-12-20T01:46:12;6.07;;;2.50;;
12110;SDS011;6119;52.372;8.990;2023-12-20T01:48:59;4.97;;;2.30;;
12110;SDS011;6119;52.372;8.990;2023-12-20T01:51:46;10.87;;;2.50;;
12110;SDS011;6119;52.372;8.990;2023-12-20T01:54:32;9.00;;;3.00;;
12110;SDS011;6119;52.372;8.990;2023-12-20T01:57:22;9.30;;;2.67;;
12110;SDS011;6119;52.372;8.990;2023-12-20T02:00:09;6.87;;;2.27;;
12110;SDS011;6119;52.372;8.990;2023-12-20T02:02:57;7.60;;;2.60;;
12110;SDS011;6119;52.372;8.990;2023-12-20T02:05:47;7.07;;;2.50;;
12110;SDS011;6119;52.372;8.990;2023-12-20T02:08:34;4.63;;;2.40;;
12110;SDS011;6119;52.372;8.990;2023-12-20T02:11:21;6.60;;;2.30;;
12110;SDS011;6119;52.372;8.990;2023-12-20T02:14:09;6.87;;;2.10;;
12110;SDS011;6119;52.372;8.990;2023-12-20T02:16:56;8.17;;;2.50;;
12110;SDS011;6119;52.372;8.990;2023-12-20T02:19:43;8.10;;;2.10;;
12110;SDS011;6119;52.372;8.990;2023-12-20T02:22:31;9.23;;;2.60;;
12110;SDS011;6119;52.372;8.990;2023-12-20T02:25:18;3.90;;;1.77;;
12110;SDS011;6119;52.372;8.990;2023-12-20T02:28:05;8.33;;;1.80;;
12110;SDS011;6119;52.372;8.990;2023-12-20T02:30:51;5.50;;;1.53;;
12110;SDS011;6119;52.372;8.990;2023-12-20T02:33:39;4.73;;;1.80;;
12110;SDS011;6119;52.372;8.990;2023-12-20T02:36:27;9.07;;;2.03;;
12110;SDS011;6119;52.372;8.990;2023-12-20T02:39:15;6.13;;;1.90;;
12110;SDS011;6119;52.372;8.990;2023-12-20T02:42:02;9.40;;;1.93;;
12110;SDS011;6119;52.372;8.990;2023-12-20T02:44:49;2.93;;;1.70;;
12110;SDS011;6119;52.372;8.990;2023-12-20T02:47:36;4.97;;;1.53;;
12110;SDS011;6119;52.372;8.990;2023-12-20T02:50:22;7.70;;;1.90;;
12110;SDS011;6119;52.372;8.990;2023-12-20T02:53:09;8.90;;;1.70;;
12110;SDS011;6119;52.372;8.990;2023-12-20T02:55:57;11.47;;;1.63;;
12110;SDS011;6119;52.372;8.990;2023-12-20T02:58:43;4.80;;;1.50;;
12110;SDS011;6119;52.372;8.990;2023-12-20T03:01:30;6.43;;;1.37;;
12110;SDS011;6119;52.372;8.990;2023-12-20T03:04:16;7.43;;;1.67;;
12110;SDS011;6119;52.372;8.990;2023-12-20T03:07:04;4.20;;;1.70;;
12110;SDS011;6119;52.372;8.990;2023-12-20T03:09:50;3.50;;;1.70;;
12110;SDS011;6119;52.372;8.990;2023-12-20T03:12:58;3.17;;;1.10;;
12110;SDS011;6119;52.372;8.990;2023-12-20T03:15:45;9.07;;;1.50;;
12110;SDS011;6119;52.372;8.990;2023-12-20T03:18:32;5.10;;;1.50;;
12110;SDS011;6119;52.372;8.990;2023-12-20T03:21:18;5.37;;;1.50;;
12110;SDS011;6119;52.372;8.990;2023-12-20T03:24:05;8.77;;;1.73;;
12110;SDS011;6119;52.372;8.990;2023-12-20T03:26:52;4.63;;;1.40;;
12110;SDS011;6119;52.372;8.990;2023-12-20T03:29:39;7.83;;;1.80;;
12110;SDS011;6119;52.372;8.990;2023-12-20T03:32:26;15.37;;;2.10;;
12110;SDS011;6119;52.372;8.990;2023-12-20T03:35:13;7.60;;;1.77;;
12110;SDS011;6119;52.372;8.990;2023-12-20T03:38:00;9.33;;;1.87;;
12110;SDS011;6119;52.372;8.990;2023-12-20T03:40:46;7.33;;;1.97;;
12110;SDS011;6119;52.372;8.990;2023-12-20T03:43:33;6.50;;;1.43;;
12110;SDS011;6119;52.372;8.990;2023-12-20T03:46:20;8.23;;;2.40;;
12110;SDS011;6119;52.372;8.990;2023-12-20T03:49:07;4.43;;;1.43;;
12110;SDS011;6119;52.372;8.990;2023-12-20T03:51:54;11.07;;;2.10;;
12110;SDS011;6119;52.372;8.990;2023-12-20T03:54:41;13.83;;;4.87;;
12110;SDS011;6119;52.372;8.990;2023-12-20T03:57:28;14.37;;;4.00;;
12110;SDS011;6119;52.372;8.990;2023-12-20T04:00:14;10.33;;;2.63;;
12110;SDS011;6119;52.372;8.990;2023-12-20T04:03:03;4.67;;;1.77;;
12110;SDS011;6119;52.372;8.990;2023-12-20T04:05:50;6.83;;;2.10;;
12110;SDS011;6119;52.372;8.990;2023-12-20T04:08:37;6.37;;;1.93;;
12110;SDS011;6119;52.372;8.990;2023-12-20T04:11:23;7.00;;;2.30;;
12110;SDS011;6119;52.372;8.990;2023-12-20T04:14:09;9.23;;;2.50;;
12110;SDS011;6119;52.372;8.990;2023-12-20T04:16:56;6.93;;;1.80;;
12110;SDS011;6119;52.372;8.990;2023-12-20T04:19:44;9.87;;;3.50;;
12110;SDS011;6119;52.372;8.990;2023-12-20T04:22:30;12.47;;;5.00;;
12110;SDS011;6119;52.372;8.990;2023-12-20T04:25:17;9.13;;;3.20;;
12110;SDS011;6119;52.372;8.990;2023-12-20T04:28:04;4.97;;;2.33;;
12110;SDS011;6119;52.372;8.990;2023-12-20T04:30:51;7.60;;;2.10;;
12110;SDS011;6119;52.372;8.990;2023-12-20T04:33:38;12.33;;;2.23;;
12110;SDS011;6119;52.372;8.990;2023-12-20T04:36:26;11.43;;;2.57;;
12110;SDS011;6119;52.372;8.990;2023-12-20T04:39:15;11.57;;;2.97;;
12110;SDS011;6119;52.372;8.990;2023-12-20T04:42:01;7.77;;;2.60;;
12110;SDS011;6119;52.372;8.990;2023-12-20T04:44:47;10.43;;;2.53;;
12110;SDS011;6119;52.372;8.990;2023-12-20T04:47:34;12.53;;;2.80;;
12110;SDS011;6119;52.372;8.990;2023-12-20T04:50:21;10.80;;;2.53;;
12110;SDS011;6119;52.372;8.990;2023-12-20T04:53:09;10.33;;;2.30;;
12110;SDS011;6119;52.372;8.990;2023-12-20T04:55:55;8.87;;;3.10;;
12110;SDS011;6119;52.372;8.990;2023-12-20T04:58:42;8.47;;;2.53;;
12110;SDS011;6119;52.372;8.990;2023-12-20T05:01:28;9.17;;;2.77;;
12110;SDS011;6119;52.372;8.990;2023-12-20T05:04:15;13.27;;;3.10;;
12110;SDS011;6119;52.372;8.990;2023-12-20T05:07:02;9.00;;;2.43;;
12110;SDS011;6119;52.372;8.990;2023-12-20T05:09:51;11.60;;;2.90;;
12110;SDS011;6119;52.372;8.990;2023-12-20T05:12:38;7.73;;;2.40;;
12110;SDS011;6119;52.372;8.990;2023-12-20T05:15:24;7.83;;;2.50;;
12110;SDS011;6119;52.372;8.990;2023-12-20T05:18:11;14.23;;;3.23;;
12110;SDS011;6119;52.372;8.990;2023-12-20T05:20:57;11.27;;;2.50;;
12110;SDS011;6119;52.372;8.990;2023-12-20T05:23:44;8.77;;;2.77;;
12110;SDS011;6119;52.372;8.990;2023-12-20T05:26:33;4.33;;;2.33;;
12110;SDS011;6119;52.372;8.990;2023-12-20T05:29:20;16.97;;;3.40;;
12110;SDS011;6119;52.372;8.990;2023-12-20T05:32:06;7.17;;;2.00;;
12110;SDS011;6119;52.372;8.990;2023-12-20T05:34:53;10.80;;;2.77;;
12110;SDS011;6119;52.372;8.990;2023-12-20T05:37:40;15.23;;;3.13;;
12110;SDS011;6119;52.372;8.990;2023-12-20T05:40:27;9.33;;;2.83;;
12110;SDS011;6119;52.372;8.990;2023-12-20T05:43:14;12.60;;;3.00;;
12110;SDS011;6119;52.372;8.990;2023-12-20T05:46:01;11.63;;;2.90;;
12110;SDS011;6119;52.372;8.990;2023-12-20T05:48:47;9.40;;;2.97;;
12110;SDS011;6119;52.372;8.990;2023-12-20T05:51:34;13.60;;;3.17;;
12110;SDS011;6119;52.372;8.990;2023-12-20T05:54:21;8.17;;;2.97;;
12110;SDS011;6119;52.372;8.990;2023-12-20T05:57:08;7.57;;;2.60;;
12110;SDS011;6119;52.372;8.990;2023-12-20T05:59:56;7.27;;;2.03;;
12110;SDS011;6119;52.372;8.990;2023-12-20T06:02:42;7.17;;;2.67;;
12110;SDS011;6119;52.372;8.990;2023-12-20T06:05:29;10.10;;;2.97;;
12110;SDS011;6119;52.372;8.990;2023-12-20T06:08:16;9.17;;;2.27;;
12110;SDS011;6119;52.372;8.990;2023-12-20T06:11:03;9.83;;;2.67;;
12110;SDS011;6119;52.372;8.990;2023-12-20T06:13:50;9.07;;;2.73;;
12110;SDS011;6119;52.372;8.990;2023-12-20T06:16:39;12.97;;;3.13;;
12110;SDS011;6119;52.372;8.990;2023-12-20T06:19:26;10.30;;;3.03;;
12110;SDS011;6119;52.372;8.990;2023-12-20T06:22:13;12.17;;;3.73;;
12110;SDS011;6119;52.372;8.990;2023-12-20T06:25:00;10.97;;;3.53;;
12110;SDS011;6119;52.372;8.990;2023-12-20T06:27:46;9.63;;;2.97;;
12110;SDS011;6119;52.372;8.990;2023-12-20T06:30:34;14.00;;;3.00;;
12110;SDS011;6119;52.372;8.990;2023-12-20T06:33:22;11.60;;;2.87;;
12110;SDS011;6119;52.372;8.990;2023-12-20T06:36:10;9.70;;;2.30;;
12110;SDS011;6119;52.372;8.990;2023-12-20T06:38:57;13.03;;;2.73;;
12110;SDS011;6119;52.372;8.990;2023-12-20T06:41:44;13.63;;;3.47;;
12110;SDS011;6119;52.372;8.990;2023-12-20T06:44:30;12.97;;;2.67;;
12110;SDS011;6119;52.372;8.990;2023-12-20T06:47:17;15.77;;;3.90;;
12110;SDS011;6119;52.372;8.990;2023-12-20T06:50:06;8.17;;;2.30;;
12110;SDS011;6119;52.372;8.990;2023-12-20T06:52:53;10.73;;;2.80;;
12110;SDS011;6119;52.372;8.990;2023-12-20T06:55:40;11.47;;;2.80;;
12110;SDS011;6119;52.372;8.990;2023-12-20T06:58:27;9.63;;;2.67;;
12110;SDS011;6119;52.372;8.990;2023-12-20T07:01:14;11.67;;;2.50;;
12110;SDS011;6119;52.372;8.990;2023-12-20T07:04:01;11.97;;;2.70;;
12110;SDS011;6119;52.372;8.990;2023-12-20T07:06:49;12.63;;;2.53;;
12110;SDS011;6119;52.372;8.990;2023-12-20T07:09:39;14.70;;;3.50;;
12110;SDS011;6119;52.372;8.990;2023-12-20T07:12:27;10.37;;;2.90;;
12110;SDS011;6119;52.372;8.990;2023-12-20T07:15:14;10.37;;;2.87;;
12110;SDS011;6119;52.372;8.990;2023-12-20T07:18:01;11.50;;;2.93;;
12110;SDS011;6119;52.372;8.990;2023-12-20T07:20:48;11.90;;;3.13;;
12110;SDS011;6119;52.372;8.990;2023-12-20T07:23:37;12.97;;;3.07;;
12110;SDS011;6119;52.372;8.990;2023-12-20T07:26:24;13.67;;;3.50;;
12110;SDS011;6119;52.372;8.990;2023-12-20T07:29:10;14.50;;;3.30;;
12110;SDS011;6119;52.372;8.990;2023-12-20T07:31:57;10.90;;;3.10;;
12110;SDS011;6119;52.372;8.990;2023-12-20T07:34:43;10.70;;;3.00;;
12110;SDS011;6119;52.372;8.990;2023-12-20T07:37:31;18.43;;;2.80;;
12110;SDS011;6119;52.372;8.990;2023-12-20T07:40:18;13.20;;;3.53;;
12110;SDS011;6119;52.372;8.990;2023-12-20T07:43:05;11.83;;;3.80;;
12110;SDS011;6119;52.372;8.990;2023-12-20T07:45:52;14.43;;;3.63;;
12110;SDS011;6119;52.372;8.990;2023-12-20T07:48:38;11.30;;;3.23;;
12110;SDS011;6119;52.372;8.990;2023-12-20T07:51:29;13.27;;;4.07;;
12110;SDS011;6119;52.372;8.990;2023-12-20T07:54:16;12.50;;;4.03;;
12110;SDS011;6119;52.372;8.990;2023-12-20T07:57:05;14.00;;;3.97;;
12110;SDS011;6119;52.372;8.990;2023-12-20T07:59:51;18.80;;;3.90;;
12110;SDS011;6119;52.372;8.990;2023-12-20T08:02:38;16.30;;;3.70;;
12110;SDS011;6119;52.372;8.990;2023-12-20T08:05:24;10.77;;;3.03;;
12110;SDS011;6119;52.372;8.990;2023-12-20T08:08:11;14.50;;;3.47;;
12110;SDS011;6119;52.372;8.990;2023-12-20T08:10:57;7.13;;;3.00;;
12110;SDS011;6119;52.372;8.990;2023-12-20T08:13:46;10.97;;;3.47;;
12110;SDS011;6119;52.372;8.990;2023-12-20T08:16:33;12.50;;;3.43;;
12110;SDS011;6119;52.372;8.990;2023-12-20T08:19:20;9.57;;;2.80;;
12110;SDS011;6119;52.372;8.990;2023-12-20T08:22:07;9.80;;;3.30;;
12110;SDS011;6119;52.372;8.990;2023-12-20T08:24:54;14.13;;;4.00;;
12110;SDS011;6119;52.372;8.990;2023-12-20T08:27:40;12.13;;;3.10;;
12110;SDS011;6119;52.372;8.990;2023-12-20T08:30:29;12.63;;;3.60;;
12110;SDS011;6119;52.372;8.990;2023-12-20T08:33:19;11.47;;;4.27;;
12110;SDS011;6119;52.372;8.990;2023-12-20T08:36:06;11.67;;;3.50;;
12110;SDS011;6119;52.372;8.990;2023-12-20T08:38:53;12.30;;;3.50;;
12110;SDS011;6119;52.372;8.990;2023-12-20T08:41:40;5.60;;;2.70;;
12110;SDS011;6119;52.372;8.990;2023-12-20T08:44:26;13.80;;;3.50;;
12110;SDS011;6119;52.372;8.990;2023-12-20T08:47:14;10.03;;;3.40;;
12110;SDS011;6119;52.372;8.990;2023-12-20T08:50:02;12.23;;;3.73;;
12110;SDS011;6119;52.372;8.990;2023-12-20T08:52:49;6.53;;;2.90;;
12110;SDS011;6119;52.372;8.990;2023-12-20T08:55:35;17.10;;;3.50;;
12110;SDS011;6119;52.372;8.990;2023-12-20T08:58:22;10.37;;;3.30;;
12110;SDS011;6119;52.372;8.990;2023-12-20T09:01:09;14.87;;;3.17;;
12110;SDS011;6119;52.372;8.990;2023-12-20T09:03:57;10.93;;;3.30;;
12110;SDS011;6119;52.372;8.990;2023-12-20T09:06:43;11.57;;;3.17;;
12110;SDS011;6119;52.372;8.990;2023-12-20T09:09:30;10.33;;;3.60;;
12110;SDS011;6119;52.372;8.990;2023-12-20T09:12:18;20.27;;;3.70;;
12110;SDS011;6119;52.372;8.990;2023-12-20T09:15:05;11.77;;;2.80;;
12110;SDS011;6119;52.372;8.990;2023-12-20T09:17:52;10.07;;;3.10;;
12110;SDS011;6119;52.372;8.990;2023-12-20T09:20:41;7.90;;;3.00;;
12110;SDS011;6119;52.372;8.990;2023-12-20T09:23:38;9.77;;;3.40;;
12110;SDS011;6119;52.372;8.990;2023-12-20T09:26:26;9.20;;;2.73;;
12110;SDS011;6119;52.372;8.990;2023-12-20T09:29:13;13.57;;;3.53;;
12110;SDS011;6119;52.372;8.990;2023-12-20T09:32:00;10.07;;;2.83;;
12110;SDS011;6119;52.372;8.990;2023-12-20T09:34:47;8.73;;;2.87;;
12110;SDS011;6119;52.372;8.990;2023-12-20T09:37:35;11.73;;;3.20;;
12110;SDS011;6119;52.372;8.990;2023-12-20T09:40:22;7.80;;;2.80;;
12110;SDS011;6119;52.372;8.990;2023-12-20T09:43:19;8.83;;;3.23;;
12110;SDS011;6119;52.372;8.990;2023-12-20T09:46:07;11.53;;;2.80;;
12110;SDS011;6119;52.372;8.990;2023-12-20T09:48:56;16.03;;;3.70;;
12110;SDS011;6119;52.372;8.990;2023-12-20T09:51:45;13.03;;;3.37;;
12110;SDS011;6119;52.372;8.990;2023-12-20T09:54:34;7.80;;;3.10;;
12110;SDS011;6119;52.372;8.990;2023-12-20T09:57:21;7.17;;;3.00;;
12110;SDS011;6119;52.372;8.990;2023-12-20T10:00:08;13.73;;;2.90;;
12110;SDS011;6119;52.372;8.990;2023-12-20T10:02:56;11.97;;;3.33;;
12110;SDS011;6119;52.372;8.990;2023-12-20T10:05:43;9.60;;;3.10;;
12110;SDS011;6119;52.372;8.990;2023-12-20T10:08:31;18.90;;;4.20;;
12110;SDS011;6119;52.372;8.990;2023-12-20T10:11:19;8.77;;;3.17;;
12110;SDS011;6119;52.372;8.990;2023-12-20T10:14:06;12.10;;;3.20;;
12110;SDS011;6119;52.372;8.990;2023-12-20T10:16:56;13.20;;;3.43;;
12110;SDS011;6119;52.372;8.990;2023-12-20T10:19:48;14.70;;;3.53;;
12110;SDS011;6119;52.372;8.990;2023-12-20T10:22:35;13.63;;;5.50;;
12110;SDS011;6119;52.372;8.990;2023-12-20T10:25:23;12.17;;;4.67;;
12110;SDS011;6119;52.372;8.990;2023-12-20T10:28:13;11.77;;;3.70;;
12110;SDS011;6119;52.372;8.990;2023-12-20T10:31:03;10.13;;;4.30;;
12110;SDS011;6119;52.372;8.990;2023-12-20T10:33:50;8.87;;;3.00;;
12110;SDS011;6119;52.372;8.990;2023-12-20T10:36:37;7.60;;;3.00;;
12110;SDS011;6119;52.372;8.990;2023-12-20T10:39:24;11.13;;;5.60;;
12110;SDS011;6119;52.372;8.990;2023-12-20T10:42:11;19.03;;;7.30;;
12110;SDS011;6119;52.372;8.990;2023-12-20T10:45:01;8.60;;;2.57;;
12110;SDS011;6119;52.372;8.990;2023-12-20T10:47:47;14.13;;;4.80;;
12110;SDS011;6119;52.372;8.990;2023-12-20T10:50:52;10.80;;;4.33;;
12110;SDS011;6119;52.372;8.990;2023-12-20T10:53:41;14.00;;;4.93;;
12110;SDS011;6119;52.372;8.990;2023-12-20T10:56:32;8.57;;;3.47;;
12110;SDS011;6119;52.372;8.990;2023-12-20T10:59:19;11.37;;;3.57;;
12110;SDS011;6119;52.372;8.990;2023-12-20T11:02:08;7.40;;;2.70;;
12110;SDS011;6119;52.372;8.990;2023-12-20T11:04:56;8.90;;;3.03;;
12110;SDS011;6119;52.372;8.990;2023-12-20T11:07:55;8.47;;;2.50;;
12110;SDS011;6119;52.372;8.990;2023-12-20T11:10:48;7.77;;;2.70;;
12110;SDS011;6119;52.372;8.990;2023-12-20T11:13:43;8.00;;;2.83;;
12110;SDS011;6119;52.372;8.990;2023-12-20T11:16:40;7.23;;;2.33;;
12110;SDS011;6119;52.372;8.990;2023-12-20T11:19:44;8.17;;;2.23;;
12110;SDS011;6119;52.372;8.990;2023-12-20T11:22:52;13.83;;;2.47;;
12110;SDS011;6119;52.372;8.990;2023-12-20T11:25:47;12.43;;;3.67;;
12110;SDS011;6119;52.372;8.990;2023-12-20T11:28:34;9.57;;;2.30;;
12110;SDS011;6119;52.372;8.990;2023-12-20T11:31:21;4.40;;;1.40;;
12110;SDS011;6119;52.372;8.990;2023-12-20T11:34:12;1.60;;;0.47;;
12110;SDS011;6119;52.372;8.990;2023-12-20T11:37:02;1.97;;;0.70;;
12110;SDS011;6119;52.372;8.990;2023-12-20T11:39:53;5.57;;;1.17;;
12110;SDS011;6119;52.372;8.990;2023-12-20T11:42:42;1.30;;;0.77;;
12110;SDS011;6119;52.372;8.990;2023-12-20T11:45:31;4.33;;;0.70;;
12110;SDS011;6119;52.372;8.990;2023-12-20T11:48:19;3.53;;;1.80;;
12110;SDS011;6119;52.372;8.990;2023-12-20T11:51:09;7.27;;;2.10;;
12110;SDS011;6119;52.372;8.990;2023-12-20T11:53:57;13.77;;;2.20;;
12110;SDS011;6119;52.372;8.990;2023-12-20T11:56:44;3.03;;;1.43;;
12110;SDS011;6119;52.372;8.990;2023-12-20T11:59:31;2.87;;;0.73;;
12110;SDS011;6119;52.372;8.990;2023-12-20T12:02:17;2.17;;;0.70;;
12110;SDS011;6119;52.372;8.990;2023-12-20T12:05:04;3.27;;;1.10;;
12110;SDS011;6119;52.372;8.990;2023-12-20T12:07:52;4.10;;;0.97;;
12110;SDS011;6119;52.372;8.990;2023-12-20T12:10:41;2.30;;;0.83;;
12110;SDS011;6119;52.372;8.990;2023-12-20T12:13:27;1.73;;;0.43;;
12110;SDS011;6119;52.372;8.990;2023-12-20T12:16:16;2.23;;;1.03;;
12110;SDS011;6119;52.372;8.990;2023-12-20T12:19:03;3.50;;;0.90;;
12110;SDS011;6119;52.372;8.990;2023-12-20T12:21:50;2.10;;;0.70;;
12110;SDS011;6119;52.372;8.990;2023-12-20T12:24:37;1.43;;;0.70;;
12110;SDS011;6119;52.372;8.990;2023-12-20T12:27:25;3.27;;;0.80;;
12110;SDS011;6119;52.372;8.990;2023-12-20T12:30:15;2.37;;;0.80;;
12110;SDS011;6119;52.372;8.990;2023-12-20T12:33:03;2.80;;;1.00;;
12110;SDS011;6119;52.372;8.990;2023-12-20T12:35:50;1.63;;;1.03;;
12110;SDS011;6119;52.372;8.990;2023-12-20T12:38:37;8.43;;;3.80;;
12110;SDS011;6119;52.372;8.990;2023-12-20T12:41:24;2.60;;;1.23;;
12110;SDS011;6119;52.372;8.990;2023-12-20T12:44:12;4.07;;;1.07;;
12110;SDS011;6119;52.372;8.990;2023-12-20T12:47:02;3.70;;;0.90;;
12110;SDS011;6119;52.372;8.990;2023-12-20T12:49:51;1.83;;;0.97;;
12110;SDS011;6119;52.372;8.990;2023-12-20T12:52:38;3.53;;;1.00;;
12110;SDS011;6119;52.372;8.990;2023-12-20T12:55:25;2.20;;;1.00;;
12110;SDS011;6119;52.372;8.990;2023-12-20T12:58:12;2.87;;;0.90;;
12110;SDS011;6119;52.372;8.990;2023-12-20T13:01:00;4.33;;;1.10;;
12110;SDS011;6119;52.372;8.990;2023-12-20T13:03:48;2.13;;;0.90;;
12110;SDS011;6119;52.372;8.990;2023-12-20T13:06:35;6.20;;;1.10;;
12110;SDS011;6119;52.372;8.990;2023-12-20T13:09:21;2.33;;;1.10;;
12110;SDS011;6119;52.372;8.990;2023-12-20T13:12:08;3.30;;;1.10;;
12110;SDS011;6119;52.372;8.990;2023-12-20T13:14:54;5.20;;;1.20;;
12110;SDS011;6119;52.372;8.990;2023-12-20T13:17:42;1.97;;;1.00;;
12110;SDS011;6119;52.372;8.990;2023-12-20T13:20:31;4.83;;;1.00;;
12110;SDS011;6119;52.372;8.990;2023-12-20T13:23:18;6.53;;;1.27;;
12110;SDS011;6119;52.372;8.990;2023-12-20T13:26:05;2.33;;;1.40;;
12110;SDS011;6119;52.372;8.990;2023-12-20T13:28:53;4.93;;;1.30;;
12110;SDS011;6119;52.372;8.990;2023-12-20T13:31:40;3.50;;;1.40;;
12110;SDS011;6119;52.372;8.990;2023-12-20T13:34:29;5.00;;;1.33;;
12110;SDS011;6119;52.372;8.990;2023-12-20T13:37:16;4.47;;;1.33;;
12110;SDS011;6119;52.372;8.990;2023-12-20T13:40:04;5.30;;;1.27;;
12110;SDS011;6119;52.372;8.990;2023-12-20T13:42:51;4.97;;;1.10;;
12110;SDS011;6119;52.372;8.990;2023-12-20T13:45:39;3.10;;;1.07;;
12110;SDS011;6119;52.372;8.990;2023-12-20T13:48:26;5.00;;;1.40;;
12110;SDS011;6119;52.372;8.990;2023-12-20T13:51:15;4.67;;;1.20;;
12110;SDS011;6119;52.372;8.990;2023-12-20T13:54:01;4.50;;;1.20;;
12110;SDS011;6119;52.372;8.990;2023-12-20T13:56:48;5.57;;;1.23;;
12110;SDS011;6119;52.372;8.990;2023-12-20T13:59:52;7.77;;;2.10;;
12110;SDS011;6119;52.372;8.990;2023-12-20T14:02:39;16.57;;;6.27;;
12110;SDS011;6119;52.372;8.990;2023-12-20T14:05:26;4.53;;;1.17;;
12110;SDS011;6119;52.372;8.990;2023-12-20T14:08:15;4.13;;;1.13;;
12110;SDS011;6119;52.372;8.990;2023-12-20T14:11:02;2.73;;;1.20;;
12110;SDS011;6119;52.372;8.990;2023-12-20T14:13:49;6.77;;;1.30;;
12110;SDS011;6119;52.372;8.990;2023-12-20T14:16:35;3.27;;;1.30;;
12110;SDS011;6119;52.372;8.990;2023-12-20T14:19:23;2.97;;;1.10;;
12110;SDS011;6119;52.372;8.990;2023-12-20T14:22:10;7.90;;;1.37;;
12110;SDS011;6119;52.372;8.990;2023-12-20T14:24:58;2.90;;;1.23;;
12110;SDS011;6119;52.372;8.990;2023-12-20T14:27:45;3.30;;;1.10;;
12110;SDS011;6119;52.372;8.990;2023-12-20T14:30:32;3.37;;;1.20;;
12110;SDS011;6119;52.372;8.990;2023-12-20T14:33:20;4.30;;;1.40;;
12110;SDS011;6119;52.372;8.990;2023-12-20T14:36:07;5.23;;;1.50;;
12110;SDS011;6119;52.372;8.990;2023-12-20T14:38:54;4.37;;;1.90;;
12110;SDS011;6119;52.372;8.990;2023-12-20T14:41:41;7.60;;;1.47;;
12110;SDS011;6119;52.372;8.990;2023-12-20T14:44:28;6.83;;;1.57;;
12110;SDS011;6119;52.372;8.990;2023-12-20T14:47:15;14.63;;;5.60;;
12110;SDS011;6119;52.372;8.990;2023-12-20T14:50:02;7.80;;;1.40;;
12110;SDS011;6119;52.372;8.990;2023-12-20T14:52:49;4.87;;;1.27;;
12110;SDS011;6119;52.372;8.990;2023-12-20T14:55:38;3.57;;;1.00;;
12110;SDS011;6119;52.372;8.990;2023-12-20T14:58:26;6.83;;;1.40;;
12110;SDS011;6119;52.372;8.990;2023-12-20T15:01:14;5.83;;;1.73;;
12110;SDS011;6119;52.372;8.990;2023-12-20T15:04:05;4.67;;;1.03;;
12110;SDS011;6119;52.372;8.990;2023-12-20T15:06:51;4.13;;;1.03;;
12110;SDS011;6119;52.372;8.990;2023-12-20T15:09:38;4.57;;;1.13;;
12110;SDS011;6119;52.372;8.990;2023-12-20T15:12:31;3.63;;;1.03;;
12110;SDS011;6119;52.372;8.990;2023-12-20T15:15:20;3.83;;;1.20;;
12110;SDS011;6119;52.372;8.990;2023-12-20T15:18:06;2.60;;;1.20;;
12110;SDS011;6119;52.372;8.990;2023-12-20T15:20:53;3.43;;;0.67;;
12110;SDS011;6119;52.372;8.990;2023-12-20T15:23:40;2.83;;;1.30;;
12110;SDS011;6119;52.372;8.990;2023-12-20T15:26:38;3.00;;;1.13;;
12110;SDS011;6119;52.372;8.990;2023-12-20T15:29:24;4.50;;;1.03;;
12110;SDS011;6119;52.372;8.990;2023-12-20T15:32:12;3.97;;;1.00;;
12110;SDS011;6119;52.372;8.990;2023-12-20T15:34:59;3.47;;;1.00;;
12110;SDS011;6119;52.372;8.990;2023-12-20T15:37:46;8.73;;;3.30;;
12110;SDS011;6119;52.372;8.990;2023-12-20T15:40:33;4.70;;;1.73;;
12110;SDS011;6119;52.372;8.990;2023-12-20T15:43:20;6.57;;;2.33;;
12110;SDS011;6119;52.372;8.990;2023-12-20T15:46:06;4.30;;;1.40;;
12110;SDS011;6119;52.372;8.990;2023-12-20T15:48:57;6.70;;;1.90;;
12110;SDS011;6119;52.372;8.990;2023-12-20T15:51:44;3.87;;;1.33;;
12110;SDS011;6119;52.372;8.990;2023-12-20T15:54:31;8.00;;;1.90;;
12110;SDS011;6119;52.372;8.990;2023-12-20T15:57:18;5.23;;;1.30;;
12110;SDS011;6119;52.372;8.990;2023-12-20T16:00:08;8.60;;;1.70;;
12110;SDS011;6119;52.372;8.990;2023-12-20T16:02:55;5.70;;;1.60;;
12110;SDS011;6119;52.372;8.990;2023-12-20T16:05:43;4.07;;;1.50;;
12110;SDS011;6119;52.372;8.990;2023-12-20T16:08:31;7.67;;;2.20;;
12110;SDS011;6119;52.372;8.990;2023-12-20T16:11:18;3.30;;;1.40;;
12110;SDS011;6119;52.372;8.990;2023-12-20T16:14:05;4.97;;;1.53;;
12110;SDS011;6119;52.372;8.990;2023-12-20T16:16:55;4.37;;;1.70;;
12110;SDS011;6119;52.372;8.990;2023-12-20T16:19:42;5.67;;;1.80;;
12110;SDS011;6119;52.372;8.990;2023-12-20T16:22:31;4.47;;;1.77;;
12110;SDS011;6119;52.372;8.990;2023-12-20T16:25:18;6.40;;;1.80;;
12110;SDS011;6119;52.372;8.990;2023-12-20T16:28:04;6.33;;;1.23;;
12110;SDS011;6119;52.372;8.990;2023-12-20T16:30:51;4.00;;;2.33;;
12110;SDS011;6119;52.372;8.990;2023-12-20T16:33:41;7.30;;;2.27;;
12110;SDS011;6119;52.372;8.990;2023-12-20T16:36:29;8.57;;;2.20;;
12110;SDS011;6119;52.372;8.990;2023-12-20T16:39:37;6.33;;;1.27;;
12110;SDS011;6119;52.372;8.990;2023-12-20T16:42:24;5.90;;;1.40;;
12110;SDS011;6119;52.372;8.990;2023-12-20T16:45:10;5.63;;;1.70;;
12110;SDS011;6119;52.372;8.990;2023-12-20T16:47:57;4.93;;;1.10;;
12110;SDS011;6119;52.372;8.990;2023-12-20T16:50:43;5.07;;;2.13;;
12110;SDS011;6119;52.372;8.990;2023-12-20T16:53:30;3.90;;;1.40;;
12110;SDS011;6119;52.372;8.990;2023-12-20T16:56:18;7.30;;;1.43;;
12110;SDS011;6119;52.372;8.990;2023-12-20T16:59:05;4.27;;;1.07;;
12110;SDS011;6119;52.372;8.990;2023-12-20T17:01:52;4.60;;;1.80;;